sensor_id;sensor_type;location;lat;lon;timestamp;P1;durP1;ratioP1;P2;durP2;ratioP2
25207;SDS011;13153;52.316;21.166;2022-09-09T00:07:05;13.48;;;7.05;;
25207;SDS011;13153;52.316;21.166;2022-09-09T00:10:14;14.15;;;7.05;;
25207;SDS011;13153;52.316;21.166;2022-09-09T00:15:32;15.60;;;7.32;;
25207;SDS011;13153;52.316;21.166;2022-09-09T00:21:21;12.98;;;7.10;;
25207;SDS011;13153;52.316;21.166;2022-09-09T00:24:00;16.15;;;7.07;;
25207;SDS011;13153;52.316;21.166;2022-09-09T00:26:45;13.10;;;6.93;;
25207;SDS011;13153;52.316;21.166;2022-09-09T00:29:33;15.63;;;7.15;;
25207;SDS011;13153;52.316;21.166;2022-09-09T00:32:21;13.25;;;7.13;;
25207;SDS011;13153;52.316;21.166;2022-09-09T00:34:58;15.48;;;7.28;;
25207;SDS011;13153;52.316;21.166;2022-09-09T00:37:40;13.15;;;7.38;;
25207;SDS011;13153;52.316;21.166;2022-09-09T00:43:56;15.07;;;6.63;;
25207;SDS011;13153;52.316;21.166;2022-09-09T00:46:53;14.13;;;7.50;;
25207;SDS011;13153;52.316;21.166;2022-09-09T00:52:40;13.10;;;7.00;;
25207;SDS011;13153;52.316;21.166;2022-09-09T00:58:36;15.45;;;7.15;;
25207;SDS011;13153;52.316;21.166;2022-09-09T01:01:03;12.65;;;7.53;;
25207;SDS011;13153;52.316;21.166;2022-09-09T01:03:37;14.05;;;7.93;;
25207;SDS011;13153;52.316;21.166;2022-09-09T01:09:21;14.13;;;8.25;;
25207;SDS011;13153;52.316;21.166;2022-09-09T01:12:25;14.52;;;6.93;;
25207;SDS011;13153;52.316;21.166;2022-09-09T01:15:20;12.98;;;8.00;;
25207;SDS011;13153;52.316;21.166;2022-09-09T01:23:29;13.80;;;7.70;;
25207;SDS011;13153;52.316;21.166;2022-09-09T01:26:25;14.23;;;7.63;;
25207;SDS011;13153;52.316;21.166;2022-09-09T01:29:02;12.35;;;7.45;;
25207;SDS011;13153;52.316;21.166;2022-09-09T01:31:37;17.38;;;7.90;;
25207;SDS011;13153;52.316;21.166;2022-09-09T01:34:13;16.17;;;8.10;;
25207;SDS011;13153;52.316;21.166;2022-09-09T01:36:44;14.13;;;7.93;;
25207;SDS011;13153;52.316;21.166;2022-09-09T01:39:33;15.32;;;7.68;;
25207;SDS011;13153;52.316;21.166;2022-09-09T01:42:02;14.55;;;7.85;;
25207;SDS011;13153;52.316;21.166;2022-09-09T01:44:31;12.35;;;7.57;;
25207;SDS011;13153;52.316;21.166;2022-09-09T01:46:59;15.25;;;7.95;;
25207;SDS011;13153;52.316;21.166;2022-09-09T01:49:24;14.93;;;8.20;;
25207;SDS011;13153;52.316;21.166;2022-09-09T01:51:52;15.02;;;8.48;;
25207;SDS011;13153;52.316;21.166;2022-09-09T01:54:21;13.52;;;8.27;;
25207;SDS011;13153;52.316;21.166;2022-09-09T02:02:36;14.82;;;9.10;;
25207;SDS011;13153;52.316;21.166;2022-09-09T02:05:27;14.00;;;8.40;;
25207;SDS011;13153;52.316;21.166;2022-09-09T02:08:18;15.93;;;8.85;;
25207;SDS011;13153;52.316;21.166;2022-09-09T02:13:29;15.57;;;8.45;;
25207;SDS011;13153;52.316;21.166;2022-09-09T02:16:05;14.95;;;8.23;;
25207;SDS011;13153;52.316;21.166;2022-09-09T02:24:02;13.10;;;8.18;;
25207;SDS011;13153;52.316;21.166;2022-09-09T02:26:35;15.32;;;8.63;;
25207;SDS011;13153;52.316;21.166;2022-09-09T02:29:26;15.85;;;8.30;;
25207;SDS011;13153;52.316;21.166;2022-09-09T02:31:59;15.07;;;7.97;;
25207;SDS011;13153;52.316;21.166;2022-09-09T02:34:31;14.07;;;8.13;;
25207;SDS011;13153;52.316;21.166;2022-09-09T02:37:04;14.52;;;8.25;;
25207;SDS011;13153;52.316;21.166;2022-09-09T02:39:34;17.02;;;8.25;;
25207;SDS011;13153;52.316;21.166;2022-09-09T02:42:00;12.90;;;8.05;;
25207;SDS011;13153;52.316;21.166;2022-09-09T02:44:25;13.45;;;8.23;;
25207;SDS011;13153;52.316;21.166;2022-09-09T02:49:57;12.60;;;7.47;;
25207;SDS011;13153;52.316;21.166;2022-09-09T02:55:50;15.13;;;7.80;;
25207;SDS011;13153;52.316;21.166;2022-09-09T02:58:32;14.43;;;7.65;;
25207;SDS011;13153;52.316;21.166;2022-09-09T03:00:58;14.20;;;7.60;;
25207;SDS011;13153;52.316;21.166;2022-09-09T03:03:26;13.10;;;7.57;;
25207;SDS011;13153;52.316;21.166;2022-09-09T03:05:52;12.35;;;7.25;;
25207;SDS011;13153;52.316;21.166;2022-09-09T03:08:17;11.85;;;7.53;;
25207;SDS011;13153;52.316;21.166;2022-09-09T03:10:43;14.60;;;8.88;;
25207;SDS011;13153;52.316;21.166;2022-09-09T03:13:09;14.55;;;8.18;;
25207;SDS011;13153;52.316;21.166;2022-09-09T03:15:37;11.40;;;7.13;;
25207;SDS011;13153;52.316;21.166;2022-09-09T03:18:03;11.85;;;7.07;;
25207;SDS011;13153;52.316;21.166;2022-09-09T03:20:29;11.38;;;7.07;;
25207;SDS011;13153;52.316;21.166;2022-09-09T03:22:56;15.45;;;7.85;;
25207;SDS011;13153;52.316;21.166;2022-09-09T03:25:24;12.13;;;7.13;;
25207;SDS011;13153;52.316;21.166;2022-09-09T03:27:50;15.70;;;7.32;;
25207;SDS011;13153;52.316;21.166;2022-09-09T03:30:20;11.60;;;7.43;;
25207;SDS011;13153;52.316;21.166;2022-09-09T03:32:51;11.98;;;7.10;;
25207;SDS011;13153;52.316;21.166;2022-09-09T03:35:17;12.25;;;7.60;;
25207;SDS011;13153;52.316;21.166;2022-09-09T03:37:44;15.90;;;7.55;;
25207;SDS011;13153;52.316;21.166;2022-09-09T03:40:10;13.63;;;7.55;;
25207;SDS011;13153;52.316;21.166;2022-09-09T03:42:37;13.30;;;7.38;;
25207;SDS011;13153;52.316;21.166;2022-09-09T03:45:05;13.68;;;7.25;;
25207;SDS011;13153;52.316;21.166;2022-09-09T03:47:34;11.63;;;6.90;;
25207;SDS011;13153;52.316;21.166;2022-09-09T03:50:00;13.63;;;7.47;;
25207;SDS011;13153;52.316;21.166;2022-09-09T03:52:26;12.88;;;7.38;;
25207;SDS011;13153;52.316;21.166;2022-09-09T03:54:52;10.57;;;6.93;;
25207;SDS011;13153;52.316;21.166;2022-09-09T03:57:19;12.77;;;7.32;;
25207;SDS011;13153;52.316;21.166;2022-09-09T03:59:45;11.68;;;6.80;;
25207;SDS011;13153;52.316;21.166;2022-09-09T04:02:11;12.57;;;7.32;;
25207;SDS011;13153;52.316;21.166;2022-09-09T04:04:36;14.30;;;7.43;;
25207;SDS011;13153;52.316;21.166;2022-09-09T04:07:02;11.10;;;7.25;;
25207;SDS011;13153;52.316;21.166;2022-09-09T04:09:31;11.27;;;6.95;;
25207;SDS011;13153;52.316;21.166;2022-09-09T04:11:57;11.05;;;6.60;;
25207;SDS011;13153;52.316;21.166;2022-09-09T04:14:23;11.30;;;6.95;;
25207;SDS011;13153;52.316;21.166;2022-09-09T04:16:53;10.15;;;7.30;;
25207;SDS011;13153;52.316;21.166;2022-09-09T04:19:21;11.18;;;6.55;;
25207;SDS011;13153;52.316;21.166;2022-09-09T04:21:46;10.70;;;7.05;;
25207;SDS011;13153;52.316;21.166;2022-09-09T04:24:16;10.38;;;6.78;;
25207;SDS011;13153;52.316;21.166;2022-09-09T04:26:42;9.68;;;6.50;;
25207;SDS011;13153;52.316;21.166;2022-09-09T04:29:08;10.07;;;6.60;;
25207;SDS011;13153;52.316;21.166;2022-09-09T04:31:34;12.23;;;6.47;;
25207;SDS011;13153;52.316;21.166;2022-09-09T04:34:00;11.02;;;6.35;;
25207;SDS011;13153;52.316;21.166;2022-09-09T04:36:30;10.95;;;6.47;;
25207;SDS011;13153;52.316;21.166;2022-09-09T04:38:57;11.75;;;6.97;;
25207;SDS011;13153;52.316;21.166;2022-09-09T04:41:23;9.25;;;6.70;;
25207;SDS011;13153;52.316;21.166;2022-09-09T04:43:49;9.85;;;6.15;;
25207;SDS011;13153;52.316;21.166;2022-09-09T04:46:15;10.30;;;6.10;;
25207;SDS011;13153;52.316;21.166;2022-09-09T04:48:42;12.32;;;6.53;;
25207;SDS011;13153;52.316;21.166;2022-09-09T04:51:09;8.45;;;5.63;;
25207;SDS011;13153;52.316;21.166;2022-09-09T04:53:38;11.52;;;6.30;;
25207;SDS011;13153;52.316;21.166;2022-09-09T04:56:12;10.23;;;5.95;;
25207;SDS011;13153;52.316;21.166;2022-09-09T04:58:43;9.57;;;6.15;;
25207;SDS011;13153;52.316;21.166;2022-09-09T05:01:10;7.82;;;5.28;;
25207;SDS011;13153;52.316;21.166;2022-09-09T05:03:47;11.43;;;5.68;;
25207;SDS011;13153;52.316;21.166;2022-09-09T05:06:13;8.65;;;5.80;;
25207;SDS011;13153;52.316;21.166;2022-09-09T05:08:45;8.55;;;5.53;;
25207;SDS011;13153;52.316;21.166;2022-09-09T05:11:18;10.23;;;6.22;;
25207;SDS011;13153;52.316;21.166;2022-09-09T05:13:57;9.48;;;5.45;;
25207;SDS011;13153;52.316;21.166;2022-09-09T05:16:23;9.88;;;5.57;;
25207;SDS011;13153;52.316;21.166;2022-09-09T05:18:48;8.73;;;5.38;;
25207;SDS011;13153;52.316;21.166;2022-09-09T05:21:16;8.18;;;5.82;;
25207;SDS011;13153;52.316;21.166;2022-09-09T05:23:44;10.45;;;5.32;;
25207;SDS011;13153;52.316;21.166;2022-09-09T05:26:12;7.40;;;5.13;;
25207;SDS011;13153;52.316;21.166;2022-09-09T05:28:40;8.15;;;5.18;;
25207;SDS011;13153;52.316;21.166;2022-09-09T05:31:06;6.95;;;4.72;;
25207;SDS011;13153;52.316;21.166;2022-09-09T05:33:38;10.52;;;5.25;;
25207;SDS011;13153;52.316;21.166;2022-09-09T05:36:15;7.20;;;4.82;;
25207;SDS011;13153;52.316;21.166;2022-09-09T05:38:43;8.35;;;4.75;;
25207;SDS011;13153;52.316;21.166;2022-09-09T05:41:10;9.68;;;4.80;;
25207;SDS011;13153;52.316;21.166;2022-09-09T05:43:37;6.97;;;4.82;;
25207;SDS011;13153;52.316;21.166;2022-09-09T05:46:04;7.32;;;4.72;;
25207;SDS011;13153;52.316;21.166;2022-09-09T05:48:57;6.25;;;4.18;;
25207;SDS011;13153;52.316;21.166;2022-09-09T05:51:24;9.43;;;4.88;;
25207;SDS011;13153;52.316;21.166;2022-09-09T05:53:54;5.57;;;4.45;;
25207;SDS011;13153;52.316;21.166;2022-09-09T05:56:23;5.43;;;4.25;;
25207;SDS011;13153;52.316;21.166;2022-09-09T05:58:52;5.90;;;4.50;;
25207;SDS011;13153;52.316;21.166;2022-09-09T06:01:23;7.47;;;4.55;;
25207;SDS011;13153;52.316;21.166;2022-09-09T06:03:58;6.22;;;4.60;;
25207;SDS011;13153;52.316;21.166;2022-09-09T06:06:24;5.78;;;4.45;;
25207;SDS011;13153;52.316;21.166;2022-09-09T06:08:55;7.15;;;4.32;;
25207;SDS011;13153;52.316;21.166;2022-09-09T06:11:27;6.45;;;4.20;;
25207;SDS011;13153;52.316;21.166;2022-09-09T06:13:56;7.03;;;4.50;;
25207;SDS011;13153;52.316;21.166;2022-09-09T06:16:23;7.57;;;4.50;;
25207;SDS011;13153;52.316;21.166;2022-09-09T06:18:52;6.70;;;4.82;;
25207;SDS011;13153;52.316;21.166;2022-09-09T06:21:20;5.85;;;4.60;;
25207;SDS011;13153;52.316;21.166;2022-09-09T06:23:51;5.93;;;4.20;;
25207;SDS011;13153;52.316;21.166;2022-09-09T06:28:50;6.38;;;4.53;;
25207;SDS011;13153;52.316;21.166;2022-09-09T06:31:23;6.85;;;5.10;;
25207;SDS011;13153;52.316;21.166;2022-09-09T06:33:55;8.32;;;4.80;;
25207;SDS011;13153;52.316;21.166;2022-09-09T06:36:27;5.68;;;4.80;;
25207;SDS011;13153;52.316;21.166;2022-09-09T06:38:55;9.00;;;5.00;;
25207;SDS011;13153;52.316;21.166;2022-09-09T06:41:23;6.28;;;4.45;;
25207;SDS011;13153;52.316;21.166;2022-09-09T06:43:52;5.75;;;4.80;;
25207;SDS011;13153;52.316;21.166;2022-09-09T06:46:18;8.13;;;5.30;;
25207;SDS011;13153;52.316;21.166;2022-09-09T06:48:47;10.93;;;5.25;;
25207;SDS011;13153;52.316;21.166;2022-09-09T06:53:47;8.32;;;5.40;;
25207;SDS011;13153;52.316;21.166;2022-09-09T06:56:17;8.77;;;5.05;;
25207;SDS011;13153;52.316;21.166;2022-09-09T06:58:52;6.88;;;5.25;;
25207;SDS011;13153;52.316;21.166;2022-09-09T07:01:21;8.95;;;5.75;;
25207;SDS011;13153;52.316;21.166;2022-09-09T07:03:50;8.40;;;5.78;;
25207;SDS011;13153;52.316;21.166;2022-09-09T07:06:40;11.52;;;6.53;;
25207;SDS011;13153;52.316;21.166;2022-09-09T07:09:11;7.88;;;5.90;;
25207;SDS011;13153;52.316;21.166;2022-09-09T07:11:46;8.65;;;6.13;;
25207;SDS011;13153;52.316;21.166;2022-09-09T07:14:16;8.85;;;5.55;;
25207;SDS011;13153;52.316;21.166;2022-09-09T07:16:42;9.30;;;6.55;;
25207;SDS011;13153;52.316;21.166;2022-09-09T07:19:09;11.55;;;6.72;;
25207;SDS011;13153;52.316;21.166;2022-09-09T07:21:37;9.80;;;6.25;;
25207;SDS011;13153;52.316;21.166;2022-09-09T07:24:05;9.00;;;5.85;;
25207;SDS011;13153;52.316;21.166;2022-09-09T07:26:35;11.32;;;6.65;;
25207;SDS011;13153;52.316;21.166;2022-09-09T07:29:03;8.43;;;6.28;;
25207;SDS011;13153;52.316;21.166;2022-09-09T07:31:31;10.98;;;6.75;;
25207;SDS011;13153;52.316;21.166;2022-09-09T07:34:00;10.77;;;7.50;;
25207;SDS011;13153;52.316;21.166;2022-09-09T07:36:28;10.52;;;6.95;;
25207;SDS011;13153;52.316;21.166;2022-09-09T07:39:08;13.30;;;8.05;;
25207;SDS011;13153;52.316;21.166;2022-09-09T07:41:45;12.50;;;7.50;;
25207;SDS011;13153;52.316;21.166;2022-09-09T07:44:17;11.75;;;7.50;;
25207;SDS011;13153;52.316;21.166;2022-09-09T07:46:49;9.15;;;7.05;;
25207;SDS011;13153;52.316;21.166;2022-09-09T07:49:15;9.30;;;7.00;;
25207;SDS011;13153;52.316;21.166;2022-09-09T07:51:44;10.98;;;7.50;;
25207;SDS011;13153;52.316;21.166;2022-09-09T07:54:13;10.50;;;6.90;;
25207;SDS011;13153;52.316;21.166;2022-09-09T07:56:42;10.70;;;7.28;;
25207;SDS011;13153;52.316;21.166;2022-09-09T07:59:08;11.93;;;7.35;;
25207;SDS011;13153;52.316;21.166;2022-09-09T08:01:39;10.68;;;7.30;;
25207;SDS011;13153;52.316;21.166;2022-09-09T08:04:16;12.43;;;7.68;;
25207;SDS011;13153;52.316;21.166;2022-09-09T08:06:45;11.40;;;7.38;;
25207;SDS011;13153;52.316;21.166;2022-09-09T08:09:17;10.18;;;7.63;;
25207;SDS011;13153;52.316;21.166;2022-09-09T08:11:45;12.68;;;7.72;;
25207;SDS011;13153;52.316;21.166;2022-09-09T08:14:12;11.57;;;7.57;;
25207;SDS011;13153;52.316;21.166;2022-09-09T08:16:39;13.80;;;7.65;;
25207;SDS011;13153;52.316;21.166;2022-09-09T08:19:09;10.23;;;7.47;;
25207;SDS011;13153;52.316;21.166;2022-09-09T08:21:35;12.05;;;7.38;;
25207;SDS011;13153;52.316;21.166;2022-09-09T08:24:05;40.38;;;12.55;;
25207;SDS011;13153;52.316;21.166;2022-09-09T08:26:36;10.98;;;7.93;;
25207;SDS011;13153;52.316;21.166;2022-09-09T08:29:07;14.20;;;8.48;;
25207;SDS011;13153;52.316;21.166;2022-09-09T08:31:36;10.65;;;7.82;;
25207;SDS011;13153;52.316;21.166;2022-09-09T08:34:07;17.27;;;9.07;;
25207;SDS011;13153;52.316;21.166;2022-09-09T08:36:35;14.93;;;9.02;;
25207;SDS011;13153;52.316;21.166;2022-09-09T08:39:06;11.35;;;8.00;;
25207;SDS011;13153;52.316;21.166;2022-09-09T08:53:09;16.88;;;9.23;;
25207;SDS011;13153;52.316;21.166;2022-09-09T08:55:50;12.60;;;8.20;;
25207;SDS011;13153;52.316;21.166;2022-09-09T08:58:26;16.05;;;8.73;;
25207;SDS011;13153;52.316;21.166;2022-09-09T09:04:01;14.68;;;9.05;;
25207;SDS011;13153;52.316;21.166;2022-09-09T09:09:59;12.63;;;7.88;;
25207;SDS011;13153;52.316;21.166;2022-09-09T09:12:51;15.73;;;9.35;;
25207;SDS011;13153;52.316;21.166;2022-09-09T09:17:46;14.55;;;8.65;;
25207;SDS011;13153;52.316;21.166;2022-09-09T09:20:14;19.98;;;9.88;;
25207;SDS011;13153;52.316;21.166;2022-09-09T09:25:21;15.63;;;8.90;;
25207;SDS011;13153;52.316;21.166;2022-09-09T09:28:03;15.35;;;9.27;;
25207;SDS011;13153;52.316;21.166;2022-09-09T09:30:58;14.50;;;9.18;;
25207;SDS011;13153;52.316;21.166;2022-09-09T09:36:07;17.38;;;9.77;;
25207;SDS011;13153;52.316;21.166;2022-09-09T09:38:34;15.38;;;9.20;;
25207;SDS011;13153;52.316;21.166;2022-09-09T09:41:01;15.85;;;9.50;;
25207;SDS011;13153;52.316;21.166;2022-09-09T09:43:34;16.02;;;9.38;;
25207;SDS011;13153;52.316;21.166;2022-09-09T09:46:17;15.25;;;9.85;;
25207;SDS011;13153;52.316;21.166;2022-09-09T09:49:00;17.38;;;10.02;;
25207;SDS011;13153;52.316;21.166;2022-09-09T09:51:34;17.60;;;10.40;;
25207;SDS011;13153;52.316;21.166;2022-09-09T09:54:08;18.67;;;10.52;;
25207;SDS011;13153;52.316;21.166;2022-09-09T09:56:38;18.13;;;10.40;;
25207;SDS011;13153;52.316;21.166;2022-09-09T09:59:05;19.73;;;11.10;;
25207;SDS011;13153;52.316;21.166;2022-09-09T10:01:45;20.00;;;11.02;;
25207;SDS011;13153;52.316;21.166;2022-09-09T10:04:15;17.42;;;10.77;;
25207;SDS011;13153;52.316;21.166;2022-09-09T10:06:48;18.83;;;11.55;;
25207;SDS011;13153;52.316;21.166;2022-09-09T10:09:26;17.55;;;10.93;;
25207;SDS011;13153;52.316;21.166;2022-09-09T10:36:35;25.50;;;14.07;;
25207;SDS011;13153;52.316;21.166;2022-09-09T10:39:29;25.90;;;14.23;;
25207;SDS011;13153;52.316;21.166;2022-09-09T10:42:12;25.77;;;15.00;;
25207;SDS011;13153;52.316;21.166;2022-09-09T10:50:18;25.38;;;14.57;;
25207;SDS011;13153;52.316;21.166;2022-09-09T10:53:22;23.20;;;14.10;;
25207;SDS011;13153;52.316;21.166;2022-09-09T10:56:23;27.50;;;15.55;;
25207;SDS011;13153;52.316;21.166;2022-09-09T11:01:26;24.60;;;14.32;;
25207;SDS011;13153;52.316;21.166;2022-09-09T11:04:06;27.42;;;13.82;;
25207;SDS011;13153;52.316;21.166;2022-09-09T11:06:44;23.08;;;14.00;;
25207;SDS011;13153;52.316;21.166;2022-09-09T11:09:18;24.38;;;14.68;;
25207;SDS011;13153;52.316;21.166;2022-09-09T11:11:52;24.42;;;15.57;;
25207;SDS011;13153;52.316;21.166;2022-09-09T11:16:47;31.50;;;15.55;;
25207;SDS011;13153;52.316;21.166;2022-09-09T11:19:34;25.45;;;14.88;;
25207;SDS011;13153;52.316;21.166;2022-09-09T11:22:08;33.60;;;14.38;;
25207;SDS011;13153;52.316;21.166;2022-09-09T11:40:02;24.17;;;15.15;;
25207;SDS011;13153;52.316;21.166;2022-09-09T11:42:44;24.80;;;14.95;;
25207;SDS011;13153;52.316;21.166;2022-09-09T11:45:22;29.35;;;15.75;;
25207;SDS011;13153;52.316;21.166;2022-09-09T11:47:54;26.60;;;15.00;;
25207;SDS011;13153;52.316;21.166;2022-09-09T11:52:48;28.52;;;16.05;;
25207;SDS011;13153;52.316;21.166;2022-09-09T11:55:30;27.73;;;15.88;;
25207;SDS011;13153;52.316;21.166;2022-09-09T11:58:03;27.42;;;15.18;;
25207;SDS011;13153;52.316;21.166;2022-09-09T12:00:46;30.63;;;16.15;;
25207;SDS011;13153;52.316;21.166;2022-09-09T12:06:17;27.13;;;15.63;;
25207;SDS011;13153;52.316;21.166;2022-09-09T12:08:53;29.90;;;16.73;;
25207;SDS011;13153;52.316;21.166;2022-09-09T12:11:31;27.00;;;16.65;;
25207;SDS011;13153;52.316;21.166;2022-09-09T12:14:00;28.80;;;16.02;;
25207;SDS011;13153;52.316;21.166;2022-09-09T12:16:28;30.70;;;16.88;;
25207;SDS011;13153;52.316;21.166;2022-09-09T12:19:21;27.48;;;16.90;;
25207;SDS011;13153;52.316;21.166;2022-09-09T12:21:49;27.33;;;16.33;;
25207;SDS011;13153;52.316;21.166;2022-09-09T12:24:33;29.58;;;17.15;;
25207;SDS011;13153;52.316;21.166;2022-09-09T12:27:17;29.92;;;17.05;;
25207;SDS011;13153;52.316;21.166;2022-09-09T12:30:08;33.55;;;17.23;;
25207;SDS011;13153;52.316;21.166;2022-09-09T12:32:39;30.35;;;16.90;;
25207;SDS011;13153;52.316;21.166;2022-09-09T12:35:19;30.33;;;15.85;;
25207;SDS011;13153;52.316;21.166;2022-09-09T12:37:56;31.17;;;17.52;;
25207;SDS011;13153;52.316;21.166;2022-09-09T12:40:28;31.52;;;16.77;;
25207;SDS011;13153;52.316;21.166;2022-09-09T12:43:00;24.38;;;15.55;;
25207;SDS011;13153;52.316;21.166;2022-09-09T12:45:48;30.00;;;16.92;;
25207;SDS011;13153;52.316;21.166;2022-09-09T12:48:22;28.60;;;16.50;;
25207;SDS011;13153;52.316;21.166;2022-09-09T12:51:01;27.40;;;15.82;;
25207;SDS011;13153;52.316;21.166;2022-09-09T12:53:35;29.63;;;16.17;;
25207;SDS011;13153;52.316;21.166;2022-09-09T12:56:05;27.73;;;16.17;;
25207;SDS011;13153;52.316;21.166;2022-09-09T12:58:44;28.45;;;15.48;;
25207;SDS011;13153;52.316;21.166;2022-09-09T13:01:18;32.78;;;18.13;;
25207;SDS011;13153;52.316;21.166;2022-09-09T13:03:51;31.70;;;19.05;;
25207;SDS011;13153;52.316;21.166;2022-09-09T13:06:22;35.63;;;21.35;;
25207;SDS011;13153;52.316;21.166;2022-09-09T13:08:54;31.35;;;19.80;;
25207;SDS011;13153;52.316;21.166;2022-09-09T13:11:37;33.65;;;19.35;;
25207;SDS011;13153;52.316;21.166;2022-09-09T13:14:18;31.57;;;17.60;;
25207;SDS011;13153;52.316;21.166;2022-09-09T13:16:58;29.00;;;17.10;;
25207;SDS011;13153;52.316;21.166;2022-09-09T13:19:32;29.42;;;16.08;;
25207;SDS011;13153;52.316;21.166;2022-09-09T13:25:13;27.60;;;16.15;;
25207;SDS011;13153;52.316;21.166;2022-09-09T13:30:30;30.58;;;16.92;;
25207;SDS011;13153;52.316;21.166;2022-09-09T13:36:26;28.60;;;17.17;;
25207;SDS011;13153;52.316;21.166;2022-09-09T13:38:42;28.40;;;15.93;;
25207;SDS011;13153;52.316;21.166;2022-09-09T13:41:24;31.02;;;15.40;;
25207;SDS011;13153;52.316;21.166;2022-09-09T13:44:25;27.25;;;15.73;;
25207;SDS011;13153;52.316;21.166;2022-09-09T13:46:59;30.63;;;16.48;;
25207;SDS011;13153;52.316;21.166;2022-09-09T13:49:48;30.17;;;16.33;;
25207;SDS011;13153;52.316;21.166;2022-09-09T13:52:15;26.50;;;15.63;;
25207;SDS011;13153;52.316;21.166;2022-09-09T13:54:47;27.48;;;16.17;;
25207;SDS011;13153;52.316;21.166;2022-09-09T13:57:15;26.35;;;16.20;;
25207;SDS011;13153;52.316;21.166;2022-09-09T13:59:47;26.77;;;15.73;;
25207;SDS011;13153;52.316;21.166;2022-09-09T14:02:14;30.02;;;16.73;;
25207;SDS011;13153;52.316;21.166;2022-09-09T14:04:41;28.75;;;16.35;;
25207;SDS011;13153;52.316;21.166;2022-09-09T14:07:11;27.17;;;16.27;;
25207;SDS011;13153;52.316;21.166;2022-09-09T14:09:40;27.92;;;16.27;;
25207;SDS011;13153;52.316;21.166;2022-09-09T14:12:12;28.08;;;15.68;;
25207;SDS011;13153;52.316;21.166;2022-09-09T14:14:40;26.55;;;16.30;;
25207;SDS011;13153;52.316;21.166;2022-09-09T14:17:07;26.05;;;16.23;;
25207;SDS011;13153;52.316;21.166;2022-09-09T14:19:34;28.30;;;16.33;;
25207;SDS011;13153;52.316;21.166;2022-09-09T14:22:00;28.83;;;16.33;;
25207;SDS011;13153;52.316;21.166;2022-09-09T14:24:28;26.83;;;16.73;;
25207;SDS011;13153;52.316;21.166;2022-09-09T14:26:54;29.58;;;15.95;;
25207;SDS011;13153;52.316;21.166;2022-09-09T14:29:20;31.67;;;17.95;;
25207;SDS011;13153;52.316;21.166;2022-09-09T14:31:46;30.80;;;17.13;;
25207;SDS011;13153;52.316;21.166;2022-09-09T14:34:12;28.13;;;16.88;;
25207;SDS011;13153;52.316;21.166;2022-09-09T14:36:39;27.98;;;16.95;;
25207;SDS011;13153;52.316;21.166;2022-09-09T14:39:06;30.02;;;17.05;;
25207;SDS011;13153;52.316;21.166;2022-09-09T14:41:32;30.10;;;17.08;;
25207;SDS011;13153;52.316;21.166;2022-09-09T14:43:59;29.80;;;17.60;;
25207;SDS011;13153;52.316;21.166;2022-09-09T14:46:25;32.22;;;17.38;;
25207;SDS011;13153;52.316;21.166;2022-09-09T14:48:51;29.70;;;18.08;;
25207;SDS011;13153;52.316;21.166;2022-09-09T14:51:19;28.88;;;18.05;;
25207;SDS011;13153;52.316;21.166;2022-09-09T14:53:50;30.38;;;17.35;;
25207;SDS011;13153;52.316;21.166;2022-09-09T14:56:21;33.75;;;17.33;;
25207;SDS011;13153;52.316;21.166;2022-09-09T14:58:53;28.60;;;17.73;;
25207;SDS011;13153;52.316;21.166;2022-09-09T15:01:20;33.00;;;18.10;;
25207;SDS011;13153;52.316;21.166;2022-09-09T15:03:50;30.55;;;18.23;;
25207;SDS011;13153;52.316;21.166;2022-09-09T15:06:28;28.25;;;17.67;;
25207;SDS011;13153;52.316;21.166;2022-09-09T15:08:59;33.30;;;18.10;;
25207;SDS011;13153;52.316;21.166;2022-09-09T15:11:26;27.67;;;16.85;;
25207;SDS011;13153;52.316;21.166;2022-09-09T15:14:02;29.75;;;18.15;;
25207;SDS011;13153;52.316;21.166;2022-09-09T15:16:29;29.80;;;17.98;;
25207;SDS011;13153;52.316;21.166;2022-09-09T15:18:57;33.90;;;19.20;;
25207;SDS011;13153;52.316;21.166;2022-09-09T15:21:25;31.92;;;19.00;;
25207;SDS011;13153;52.316;21.166;2022-09-09T15:23:55;28.80;;;17.65;;
25207;SDS011;13153;52.316;21.166;2022-09-09T15:26:21;30.63;;;17.67;;
25207;SDS011;13153;52.316;21.166;2022-09-09T15:28:48;29.95;;;17.40;;
25207;SDS011;13153;52.316;21.166;2022-09-09T15:31:24;33.10;;;18.55;;
25207;SDS011;13153;52.316;21.166;2022-09-09T15:34:00;32.17;;;19.00;;
25207;SDS011;13153;52.316;21.166;2022-09-09T15:36:32;31.83;;;18.42;;
25207;SDS011;13153;52.316;21.166;2022-09-09T15:39:02;27.25;;;17.20;;
25207;SDS011;13153;52.316;21.166;2022-09-09T15:41:31;35.28;;;19.17;;
25207;SDS011;13153;52.316;21.166;2022-09-09T15:43:57;37.08;;;18.75;;
25207;SDS011;13153;52.316;21.166;2022-09-09T15:49:04;32.35;;;18.90;;
25207;SDS011;13153;52.316;21.166;2022-09-09T15:51:33;32.85;;;18.35;;
25207;SDS011;13153;52.316;21.166;2022-09-09T15:53:58;32.33;;;19.23;;
25207;SDS011;13153;52.316;21.166;2022-09-09T15:56:25;32.90;;;19.08;;
25207;SDS011;13153;52.316;21.166;2022-09-09T15:58:54;35.08;;;19.58;;
25207;SDS011;13153;52.316;21.166;2022-09-09T16:01:23;42.30;;;20.13;;
25207;SDS011;13153;52.316;21.166;2022-09-09T16:03:50;36.25;;;20.70;;
25207;SDS011;13153;52.316;21.166;2022-09-09T16:06:17;33.05;;;19.50;;
25207;SDS011;13153;52.316;21.166;2022-09-09T16:08:48;37.28;;;20.95;;
25207;SDS011;13153;52.316;21.166;2022-09-09T16:11:18;36.72;;;20.58;;
25207;SDS011;13153;52.316;21.166;2022-09-09T16:13:48;37.83;;;20.17;;
25207;SDS011;13153;52.316;21.166;2022-09-09T16:16:17;34.88;;;20.23;;
25207;SDS011;13153;52.316;21.166;2022-09-09T16:18:47;36.83;;;19.95;;
25207;SDS011;13153;52.316;21.166;2022-09-09T16:21:18;36.60;;;21.13;;
25207;SDS011;13153;52.316;21.166;2022-09-09T16:23:47;36.05;;;21.67;;
25207;SDS011;13153;52.316;21.166;2022-09-09T16:26:16;34.50;;;20.52;;
25207;SDS011;13153;52.316;21.166;2022-09-09T16:28:43;33.65;;;19.92;;
25207;SDS011;13153;52.316;21.166;2022-09-09T16:31:12;42.67;;;22.38;;
25207;SDS011;13153;52.316;21.166;2022-09-09T16:33:44;34.65;;;21.13;;
25207;SDS011;13153;52.316;21.166;2022-09-09T16:36:12;36.33;;;20.55;;
25207;SDS011;13153;52.316;21.166;2022-09-09T16:38:44;38.45;;;20.83;;
25207;SDS011;13153;52.316;21.166;2022-09-09T16:41:11;41.65;;;22.23;;
25207;SDS011;13153;52.316;21.166;2022-09-09T16:43:39;38.33;;;20.00;;
25207;SDS011;13153;52.316;21.166;2022-09-09T16:46:16;33.00;;;19.50;;
25207;SDS011;13153;52.316;21.166;2022-09-09T16:48:44;37.97;;;20.65;;
25207;SDS011;13153;52.316;21.166;2022-09-09T16:51:14;37.38;;;19.05;;
25207;SDS011;13153;52.316;21.166;2022-09-09T16:53:48;33.15;;;20.00;;
25207;SDS011;13153;52.316;21.166;2022-09-09T16:56:15;34.97;;;19.10;;
25207;SDS011;13153;52.316;21.166;2022-09-09T16:58:48;34.40;;;19.05;;
25207;SDS011;13153;52.316;21.166;2022-09-09T17:01:26;39.42;;;19.23;;
25207;SDS011;13153;52.316;21.166;2022-09-09T17:03:56;37.15;;;19.77;;
25207;SDS011;13153;52.316;21.166;2022-09-09T17:06:27;37.22;;;18.88;;
25207;SDS011;13153;52.316;21.166;2022-09-09T17:08:56;34.55;;;18.92;;
25207;SDS011;13153;52.316;21.166;2022-09-09T17:11:24;31.90;;;18.92;;
25207;SDS011;13153;52.316;21.166;2022-09-09T17:13:50;29.13;;;18.63;;
25207;SDS011;13153;52.316;21.166;2022-09-09T17:16:18;32.65;;;18.25;;